Charlotte Borchard — V7AO8 — position and weather

sailwx.info

Track history (hours):
 
Tides and Currents Weather Stations Pressure Air Temp Water Temp Dewpoint Dewpoint Depression Visibility Wind Speed Wind Dir Waves Ship Positions

Charlotte Borchard

Last reported at 2018-May-24 21:09 UTC. Time now 2018-May-25 01:31 UTC.
Position N 36°02' W 005°00'.

Length 159 m; draft 6.7 m.

Type: Ship. MMSI: 538005039.

Date/timePositionNaut miles runAvg speedWind from/ knotsBaromVisibWave heightAir tempDewpointWater temp
2018-May-24 21:09N 36°02' W 005°00'320.1
2018-May-24 21:00N 36°01' W 005°04'919.0
2018-May-24 20:30N 35°60' W 005°16'1019.1
2018-May-24 20:00N 35°58' W 005°27'917.7
2018-May-24 19:30N 35°55' W 005°38'25914.4
2018-May-24 01:27N 38°26' W 010°03'1016.7
2018-May-24 00:52N 38°36' W 010°04'617.0
2018-May-24 00:30N 38°42' W 010°06'916.8
2018-May-23 23:59N 38°51' W 010°06'817.1
2018-May-23 23:30N 38°58' W 010°02'816.8
2018-May-23 23:00N 39°06' W 009°58'816.8
2018-May-23 22:30N 39°14' W 009°53'817.1
2018-May-23 22:00N 39°22' W 009°49'917.4
2018-May-23 21:28N 39°30' W 009°43'10317.2
2018-May-23 15:31N 41°03' W 008°48'117.5
2018-May-23 15:27N 41°04' W 008°47'715.2
2018-May-23 15:00N 41°10' W 008°42'1 1.5
2018-May-23 14:19N 41°11' W 008°42'0 0.0
2018-May-23 13:43N 41°11' W 008°42'0 0.0
2018-May-23 11:31N 41°11' W 008°42'0 0.0
2018-May-23 11:29N 41°11' W 008°42'0 0.0
2018-May-23 10:59N 41°11' W 008°42'0 0.0
2018-May-23 10:19N 41°11' W 008°42'0 0.0
2018-May-23 08:56N 41°11' W 008°42'0 0.0
2018-May-23 07:34N 41°11' W 008°42'0 0.2
2018-May-23 07:29N 41°11' W 008°42'3 5.2
2018-May-23 06:59N 41°09' W 008°44'2 3.0
2018-May-23 06:28N 41°09' W 008°46'57712.6
2018-May-21 08:48N 50°39' W 006°29'1014.5
2018-May-21 08:06N 50°48' W 006°24'314.6
2018-May-21 07:52N 50°52' W 006°23'3315.2
2018-May-21 05:41N 51°24' W 006°09'515.5
2018-May-21 05:22N 51°28' W 006°06'615.8
2018-May-21 05:00N 51°34' W 006°04'815.8
2018-May-21 04:30N 51°41' W 006°00'815.5
2018-May-21 04:00N 51°49' W 005°57'815.1
2018-May-21 03:30N 51°56' W 005°54'714.8
2018-May-21 03:00N 52°04' W 005°54'714.4
2018-May-21 02:30N 52°11' W 005°54'714.0
2018-May-21 01:59N 52°18' W 005°54'613.3
2018-May-21 01:30N 52°25' W 005°55'612.8
2018-May-21 01:00N 52°31' W 005°54'1112.8
2018-May-21 00:06N 52°42' W 005°53'112.2
2018-May-21 00:00N 52°44' W 005°53'612.2
2018-May-20 23:30N 52°50' W 005°53'611.7
2018-May-20 23:00N 52°56' W 005°54'611.2
2018-May-20 22:30N 53°01' W 005°55'612.1
2018-May-20 22:00N 53°07' W 005°56'713.1
2018-May-20 21:30N 53°13' W 005°60'713.3
2018-May-20 21:00N 53°19' W 006°04'5 5.1
2018-May-20 19:59N 53°21' W 006°13'0 0.0
2018-May-20 04:17N 53°21' W 006°13'6 1.4
2018-May-20 00:05N 53°21' W 006°03'2 7.1
2018-May-19 23:49N 53°21' W 005°60'311.4
2018-May-19 23:30N 53°22' W 005°54'816.3
2018-May-19 23:00N 53°25' W 005°41'816.3
2018-May-19 22:30N 53°26' W 005°27'816.3
2018-May-19 22:01N 53°28' W 005°14'1715.9
2018-May-19 20:56N 53°33' W 004°47'715.8
2018-May-19 20:28N 53°33' W 004°34'816.4
2018-May-19 19:59N 53°33' W 004°21'816.8
2018-May-19 19:30N 53°33' W 004°07'817.0
2018-May-19 19:00N 53°34' W 003°53'917.3
2018-May-19 18:30N 53°34' W 003°38'917.4
2018-May-19 18:00N 53°33' W 003°24'714.1
2018-May-19 17:30N 53°31' W 003°12'713.6
2018-May-19 17:00N 53°28' W 003°03'1 2.1
2018-May-19 16:27N 53°27' W 003°01'0 0.6
2018-May-19 15:57N 53°27' W 003°01'0 0.6
2018-May-19 15:25N 53°28' W 003°02'0 0.0
2018-May-19 14:43N 53°28' W 003°02'0 0.0
2018-May-19 14:25N 53°28' W 003°02'0 0.0
2018-May-19 13:58N 53°28' W 003°02'0 0.0
2018-May-19 13:28N 53°28' W 003°02'0 0.0
2018-May-19 12:55N 53°28' W 003°02'0 0.0
2018-May-19 12:22N 53°28' W 003°02'0 0.0
2018-May-19 11:58N 53°28' W 003°02'0 0.0
2018-May-19 11:28N 53°28' W 003°02'0 0.0
2018-May-19 10:59N 53°28' W 003°02'0 0.0
2018-May-19 10:29N 53°28' W 003°02'0 0.0
2018-May-19 09:59N 53°28' W 003°02'0 0.0
2018-May-19 09:29N 53°28' W 003°02'0 0.0
2018-May-19 08:59N 53°28' W 003°02'0 0.0
2018-May-19 08:25N 53°28' W 003°02'0 0.0
2018-May-19 07:59N 53°28' W 003°02'0 0.0
2018-May-19 07:29N 53°28' W 003°02'0 0.0
2018-May-19 06:59N 53°28' W 003°02'0 0.0
2018-May-19 06:23N 53°28' W 003°02'0 0.0
2018-May-19 05:59N 53°28' W 003°02'0 0.0
2018-May-19 05:29N 53°28' W 003°02'0 0.0
2018-May-19 04:55N 53°28' W 003°02'0 0.0
2018-May-19 04:29N 53°28' W 003°02'0 0.0
2018-May-19 03:55N 53°28' W 003°02'0 0.0
2018-May-19 03:29N 53°28' W 003°02'0 0.0
2018-May-19 02:59N 53°28' W 003°02'0 0.0
2018-May-19 02:29N 53°28' W 003°02'0 0.0
2018-May-19 01:55N 53°28' W 003°02'0 0.2
2018-May-19 01:30N 53°28' W 003°01'1 1.3
2018-May-19 01:00N 53°27' W 003°01'1 1.0
2018-May-19 00:30N 53°27' W 003°02'5 9.2
2018-May-18 23:59N 53°31' W 003°07'712.9
2018-May-18 23:28N 53°31' W 003°18'4 9.6
2018-May-18 23:00N 53°31' W 003°25'611.3
2018-May-18 22:30N 53°31' W 003°35'611.4
2018-May-18 22:00N 53°31' W 003°44'816.0
2018-May-18 21:30N 53°30' W 003°58'918.3
2018-May-18 21:01N 53°30' W 004°13'1018.4
2018-May-18 20:30N 53°29' W 004°29'5514.7
2018-May-18 16:47N 52°42' W 005°15'413.3
2018-May-18 16:30N 52°39' W 005°17'1213.5
2018-May-18 15:36N 52°27' W 005°24'113.4
2018-May-18 15:29N 52°26' W 005°25'713.6
2018-May-18 15:00N 52°20' W 005°29'2314.6
2018-May-18 13:25N 51°58' W 005°42'615.9
2018-May-18 13:00N 51°52' W 005°46'816.3
2018-May-18 12:30N 51°44' W 005°50'816.5
2018-May-18 12:00N 51°36' W 005°54'816.5
2018-May-18 11:30N 51°28' W 005°57'816.4
2018-May-18 11:00N 51°20' W 006°00'816.0
2018-May-18 10:30N 51°13' W 006°03'815.9
2018-May-18 10:00N 51°05' W 006°08'816.0
2018-May-18 09:30N 50°58' W 006°12'4616.5
2018-May-18 06:43N 50°13' W 006°31'617.8
2018-May-18 06:21N 50°07' W 006°34'617.9
2018-May-18 06:00N 50°01' W 006°37'918.0
2018-May-18 05:30N 49°52' W 006°41'917.8
2018-May-18 05:00N 49°44' W 006°45'2717.7
2018-May-18 03:29N 49°18' W 006°58'817.6
2018-May-18 03:00N 49°10' W 007°03'917.4
2018-May-18 02:30N 49°02' W 007°07'917.1
2018-May-18 02:00N 48°54' W 007°12'1316.9
2018-May-18 01:13N 48°42' W 007°18'516.7
2018-May-18 00:55N 48°37' W 007°20'716.5
2018-May-18 00:30N 48°30' W 007°23'43914.7
2018-May-16 18:42N 41°15' W 008°48'315.3
2018-May-16 18:30N 41°13' W 008°46'4 7.1
2018-May-16 18:00N 41°11' W 008°42'1 2.1
2018-May-16 17:30N 41°12' W 008°41'0 0.0
2018-May-16 17:00N 41°12' W 008°41'0 0.0
2018-May-16 16:30N 41°12' W 008°41'0 0.0
2018-May-16 15:54N 41°12' W 008°41'0 0.0
2018-May-16 15:20N 41°12' W 008°41'0 0.0
2018-May-16 14:50N 41°12' W 008°41'0 0.0
2018-May-16 13:26N 41°12' W 008°41'0 0.0
2018-May-16 12:15N 41°12' W 008°41'0 0.9
2018-May-16 12:00N 41°11' W 008°41'2 4.0
2018-May-16 11:30N 41°10' W 008°42'2 4.4
2018-May-16 10:59N 41°09' W 008°45'2 3.5
2018-May-16 10:30N 41°08' W 008°47'0 0.7
2018-May-16 10:00N 41°09' W 008°48'0 0.3
2018-May-16 09:30N 41°09' W 008°47'0 0.1
2018-May-16 09:00N 41°09' W 008°47'1 1.0
2018-May-16 08:28N 41°09' W 008°48'0 0.2
2018-May-16 08:00N 41°09' W 008°48'1 1.3
2018-May-16 07:29N 41°10' W 008°48'0 0.3
2018-May-16 07:00N 41°10' W 008°48'1 1.9
2018-May-16 06:29N 41°10' W 008°50'1 1.0
2018-May-16 05:56N 41°10' W 008°49'0 0.2
2018-May-16 05:30N 41°10' W 008°50'0 0.6
2018-May-16 05:00N 41°10' W 008°49'3 5.7
2018-May-16 04:25N 41°07' W 008°50'10614.1
2018-May-15 20:57N 39°31' W 009°47'715.8
2018-May-15 20:30N 39°24' W 009°48'815.7
2018-May-15 20:00N 39°16' W 009°49'815.6
2018-May-15 19:30N 39°08' W 009°49'815.4
2018-May-15 19:00N 39°00' W 009°50'815.4
2018-May-15 18:31N 38°53' W 009°51'815.0
2018-May-15 18:00N 38°45' W 009°50'814.9
2018-May-15 17:30N 38°38' W 009°50'815.0
2018-May-15 17:00N 38°30' W 009°48'714.7
2018-May-15 16:30N 38°23' W 009°46'815.0
2018-May-15 16:00N 38°16' W 009°43'815.3
2018-May-15 15:31N 38°09' W 009°41'815.5
2018-May-15 15:01N 38°01' W 009°39'815.4
2018-May-15 14:30N 37°54' W 009°37'815.5
2018-May-15 14:00N 37°46' W 009°35'815.6
2018-May-15 13:31N 37°38' W 009°33'815.6
2018-May-15 13:00N 37°31' W 009°31'815.5
2018-May-15 12:30N 37°23' W 009°28'3115.2
2018-May-15 10:28N 36°53' W 009°19'714.8
2018-May-15 10:00N 36°48' W 009°13'814.5
2018-May-15 09:29N 36°44' W 009°05'714.8
2018-May-15 09:00N 36°42' W 008°57'715.3
2018-May-15 08:30N 36°39' W 008°48'815.8
2018-May-15 08:00N 36°37' W 008°38'815.9
2018-May-15 07:29N 36°34' W 008°29'715.5
2018-May-15 07:00N 36°32' W 008°20'815.9
2018-May-15 06:30N 36°29' W 008°10'816.0
2018-May-15 06:00N 36°27' W 008°01'816.0
2018-May-15 05:29N 36°24' W 007°51'816.1
2018-May-15 04:59N 36°22' W 007°42'816.2
2018-May-15 04:30N 36°19' W 007°33'9816.3
2018-May-14 22:30N 35°57' W 005°35'715.2
2018-May-14 22:00N 35°60' W 005°26'  
Track history (hours):
 
Tides and Currents Weather Stations Pressure Air Temp Water Temp Dewpoint Dewpoint Depression Visibility Wind Speed Wind Dir Waves Ship Positions

Charlotte Borchard

Last reported at 2018-May-24 21:09 UTC. Time now 2018-May-25 01:31 UTC.
Position N 36°02' W 005°00'.

Length 159 m; draft 6.7 m.

Type: Ship. MMSI: 538005039.

Date/timePositionNaut miles runAvg speedWind from/ knotsBaromVisibWave heightAir tempDewpointWater temp
2018-May-24 21:09N 36°02' W 005°00'320.1
2018-May-24 21:00N 36°01' W 005°04'919.0
2018-May-24 20:30N 35°60' W 005°16'1019.1
2018-May-24 20:00N 35°58' W 005°27'917.7
2018-May-24 19:30N 35°55' W 005°38'25914.4
2018-May-24 01:27N 38°26' W 010°03'1016.7
2018-May-24 00:52N 38°36' W 010°04'617.0
2018-May-24 00:30N 38°42' W 010°06'916.8
2018-May-23 23:59N 38°51' W 010°06'817.1
2018-May-23 23:30N 38°58' W 010°02'816.8
2018-May-23 23:00N 39°06' W 009°58'816.8
2018-May-23 22:30N 39°14' W 009°53'817.1
2018-May-23 22:00N 39°22' W 009°49'917.4
2018-May-23 21:28N 39°30' W 009°43'10317.2
2018-May-23 15:31N 41°03' W 008°48'117.5
2018-May-23 15:27N 41°04' W 008°47'715.2
2018-May-23 15:00N 41°10' W 008°42'1 1.5
2018-May-23 14:19N 41°11' W 008°42'0 0.0
2018-May-23 13:43N 41°11' W 008°42'0 0.0
2018-May-23 11:31N 41°11' W 008°42'0 0.0
2018-May-23 11:29N 41°11' W 008°42'0 0.0
2018-May-23 10:59N 41°11' W 008°42'0 0.0
2018-May-23 10:19N 41°11' W 008°42'0 0.0
2018-May-23 08:56N 41°11' W 008°42'0 0.0
2018-May-23 07:34N 41°11' W 008°42'0 0.2
2018-May-23 07:29N 41°11' W 008°42'3 5.2
2018-May-23 06:59N 41°09' W 008°44'2 3.0
2018-May-23 06:28N 41°09' W 008°46'57712.6
2018-May-21 08:48N 50°39' W 006°29'1014.5
2018-May-21 08:06N 50°48' W 006°24'314.6
2018-May-21 07:52N 50°52' W 006°23'3315.2
2018-May-21 05:41N 51°24' W 006°09'515.5
2018-May-21 05:22N 51°28' W 006°06'615.8
2018-May-21 05:00N 51°34' W 006°04'815.8
2018-May-21 04:30N 51°41' W 006°00'815.5
2018-May-21 04:00N 51°49' W 005°57'815.1
2018-May-21 03:30N 51°56' W 005°54'714.8
2018-May-21 03:00N 52°04' W 005°54'714.4
2018-May-21 02:30N 52°11' W 005°54'714.0
2018-May-21 01:59N 52°18' W 005°54'613.3
2018-May-21 01:30N 52°25' W 005°55'612.8
2018-May-21 01:00N 52°31' W 005°54'1112.8
2018-May-21 00:06N 52°42' W 005°53'112.2
2018-May-21 00:00N 52°44' W 005°53'612.2
2018-May-20 23:30N 52°50' W 005°53'611.7
2018-May-20 23:00N 52°56' W 005°54'611.2
2018-May-20 22:30N 53°01' W 005°55'612.1
2018-May-20 22:00N 53°07' W 005°56'713.1
2018-May-20 21:30N 53°13' W 005°60'713.3
2018-May-20 21:00N 53°19' W 006°04'5 5.1
2018-May-20 19:59N 53°21' W 006°13'0 0.0
2018-May-20 04:17N 53°21' W 006°13'6 1.4
2018-May-20 00:05N 53°21' W 006°03'2 7.1
2018-May-19 23:49N 53°21' W 005°60'311.4
2018-May-19 23:30N 53°22' W 005°54'816.3
2018-May-19 23:00N 53°25' W 005°41'816.3
2018-May-19 22:30N 53°26' W 005°27'816.3
2018-May-19 22:01N 53°28' W 005°14'1715.9
2018-May-19 20:56N 53°33' W 004°47'715.8
2018-May-19 20:28N 53°33' W 004°34'816.4
2018-May-19 19:59N 53°33' W 004°21'816.8
2018-May-19 19:30N 53°33' W 004°07'817.0
2018-May-19 19:00N 53°34' W 003°53'917.3
2018-May-19 18:30N 53°34' W 003°38'917.4
2018-May-19 18:00N 53°33' W 003°24'714.1
2018-May-19 17:30N 53°31' W 003°12'713.6
2018-May-19 17:00N 53°28' W 003°03'1 2.1
2018-May-19 16:27N 53°27' W 003°01'0 0.6
2018-May-19 15:57N 53°27' W 003°01'0 0.6
2018-May-19 15:25N 53°28' W 003°02'0 0.0
2018-May-19 14:43N 53°28' W 003°02'0 0.0
2018-May-19 14:25N 53°28' W 003°02'0 0.0
2018-May-19 13:58N 53°28' W 003°02'0 0.0
2018-May-19 13:28N 53°28' W 003°02'0 0.0
2018-May-19 12:55N 53°28' W 003°02'0 0.0
2018-May-19 12:22N 53°28' W 003°02'0 0.0
2018-May-19 11:58N 53°28' W 003°02'0 0.0
2018-May-19 11:28N 53°28' W 003°02'0 0.0
2018-May-19 10:59N 53°28' W 003°02'0 0.0
2018-May-19 10:29N 53°28' W 003°02'0 0.0
2018-May-19 09:59N 53°28' W 003°02'0 0.0
2018-May-19 09:29N 53°28' W 003°02'0 0.0
2018-May-19 08:59N 53°28' W 003°02'0 0.0
2018-May-19 08:25N 53°28' W 003°02'0 0.0
2018-May-19 07:59N 53°28' W 003°02'0 0.0
2018-May-19 07:29N 53°28' W 003°02'0 0.0
2018-May-19 06:59N 53°28' W 003°02'0 0.0
2018-May-19 06:23N 53°28' W 003°02'0 0.0
2018-May-19 05:59N 53°28' W 003°02'0 0.0
2018-May-19 05:29N 53°28' W 003°02'0 0.0
2018-May-19 04:55N 53°28' W 003°02'0 0.0
2018-May-19 04:29N 53°28' W 003°02'0 0.0
2018-May-19 03:55N 53°28' W 003°02'0 0.0
2018-May-19 03:29N 53°28' W 003°02'0 0.0
2018-May-19 02:59N 53°28' W 003°02'0 0.0
2018-May-19 02:29N 53°28' W 003°02'0 0.0
2018-May-19 01:55N 53°28' W 003°02'0 0.2
2018-May-19 01:30N 53°28' W 003°01'1 1.3
2018-May-19 01:00N 53°27' W 003°01'1 1.0
2018-May-19 00:30N 53°27' W 003°02'5 9.2
2018-May-18 23:59N 53°31' W 003°07'712.9
2018-May-18 23:28N 53°31' W 003°18'4 9.6
2018-May-18 23:00N 53°31' W 003°25'611.3
2018-May-18 22:30N 53°31' W 003°35'611.4
2018-May-18 22:00N 53°31' W 003°44'816.0
2018-May-18 21:30N 53°30' W 003°58'918.3
2018-May-18 21:01N 53°30' W 004°13'1018.4
2018-May-18 20:30N 53°29' W 004°29'5514.7
2018-May-18 16:47N 52°42' W 005°15'413.3
2018-May-18 16:30N 52°39' W 005°17'1213.5
2018-May-18 15:36N 52°27' W 005°24'113.4
2018-May-18 15:29N 52°26' W 005°25'713.6
2018-May-18 15:00N 52°20' W 005°29'2314.6
2018-May-18 13:25N 51°58' W 005°42'615.9
2018-May-18 13:00N 51°52' W 005°46'816.3
2018-May-18 12:30N 51°44' W 005°50'816.5
2018-May-18 12:00N 51°36' W 005°54'816.5
2018-May-18 11:30N 51°28' W 005°57'816.4
2018-May-18 11:00N 51°20' W 006°00'816.0
2018-May-18 10:30N 51°13' W 006°03'815.9
2018-May-18 10:00N 51°05' W 006°08'816.0
2018-May-18 09:30N 50°58' W 006°12'4616.5
2018-May-18 06:43N 50°13' W 006°31'617.8
2018-May-18 06:21N 50°07' W 006°34'617.9
2018-May-18 06:00N 50°01' W 006°37'918.0
2018-May-18 05:30N 49°52' W 006°41'917.8
2018-May-18 05:00N 49°44' W 006°45'2717.7
2018-May-18 03:29N 49°18' W 006°58'817.6
2018-May-18 03:00N 49°10' W 007°03'917.4
2018-May-18 02:30N 49°02' W 007°07'917.1
2018-May-18 02:00N 48°54' W 007°12'1316.9
2018-May-18 01:13N 48°42' W 007°18'516.7
2018-May-18 00:55N 48°37' W 007°20'716.5
2018-May-18 00:30N 48°30' W 007°23'43914.7
2018-May-16 18:42N 41°15' W 008°48'315.3
2018-May-16 18:30N 41°13' W 008°46'4 7.1
2018-May-16 18:00N 41°11' W 008°42'1 2.1
2018-May-16 17:30N 41°12' W 008°41'0 0.0
2018-May-16 17:00N 41°12' W 008°41'0 0.0
2018-May-16 16:30N 41°12' W 008°41'0 0.0
2018-May-16 15:54N 41°12' W 008°41'0 0.0
2018-May-16 15:20N 41°12' W 008°41'0 0.0
2018-May-16 14:50N 41°12' W 008°41'0 0.0
2018-May-16 13:26N 41°12' W 008°41'0 0.0
2018-May-16 12:15N 41°12' W 008°41'0 0.9
2018-May-16 12:00N 41°11' W 008°41'2 4.0
2018-May-16 11:30N 41°10' W 008°42'2 4.4
2018-May-16 10:59N 41°09' W 008°45'2 3.5
2018-May-16 10:30N 41°08' W 008°47'0 0.7
2018-May-16 10:00N 41°09' W 008°48'0 0.3
2018-May-16 09:30N 41°09' W 008°47'0 0.1
2018-May-16 09:00N 41°09' W 008°47'1 1.0
2018-May-16 08:28N 41°09' W 008°48'0 0.2
2018-May-16 08:00N 41°09' W 008°48'1 1.3
2018-May-16 07:29N 41°10' W 008°48'0 0.3
2018-May-16 07:00N 41°10' W 008°48'1 1.9
2018-May-16 06:29N 41°10' W 008°50'1 1.0
2018-May-16 05:56N 41°10' W 008°49'0 0.2
2018-May-16 05:30N 41°10' W 008°50'0 0.6
2018-May-16 05:00N 41°10' W 008°49'3 5.7
2018-May-16 04:25N 41°07' W 008°50'10614.1
2018-May-15 20:57N 39°31' W 009°47'715.8
2018-May-15 20:30N 39°24' W 009°48'815.7
2018-May-15 20:00N 39°16' W 009°49'815.6
2018-May-15 19:30N 39°08' W 009°49'815.4
2018-May-15 19:00N 39°00' W 009°50'815.4
2018-May-15 18:31N 38°53' W 009°51'815.0
2018-May-15 18:00N 38°45' W 009°50'814.9
2018-May-15 17:30N 38°38' W 009°50'815.0
2018-May-15 17:00N 38°30' W 009°48'714.7
2018-May-15 16:30N 38°23' W 009°46'815.0
2018-May-15 16:00N 38°16' W 009°43'815.3
2018-May-15 15:31N 38°09' W 009°41'815.5
2018-May-15 15:01N 38°01' W 009°39'815.4
2018-May-15 14:30N 37°54' W 009°37'815.5
2018-May-15 14:00N 37°46' W 009°35'815.6
2018-May-15 13:31N 37°38' W 009°33'815.6
2018-May-15 13:00N 37°31' W 009°31'815.5
2018-May-15 12:30N 37°23' W 009°28'3115.2
2018-May-15 10:28N 36°53' W 009°19'714.8
2018-May-15 10:00N 36°48' W 009°13'814.5
2018-May-15 09:29N 36°44' W 009°05'714.8
2018-May-15 09:00N 36°42' W 008°57'715.3
2018-May-15 08:30N 36°39' W 008°48'815.8
2018-May-15 08:00N 36°37' W 008°38'815.9
2018-May-15 07:29N 36°34' W 008°29'715.5
2018-May-15 07:00N 36°32' W 008°20'815.9
2018-May-15 06:30N 36°29' W 008°10'816.0
2018-May-15 06:00N 36°27' W 008°01'816.0
2018-May-15 05:29N 36°24' W 007°51'816.1
2018-May-15 04:59N 36°22' W 007°42'816.2
2018-May-15 04:30N 36°19' W 007°33'9816.3
2018-May-14 22:30N 35°57' W 005°35'715.2
2018-May-14 22:00N 35°60' W 005°26'  

Dump ship's entire track history